sensor_id;sensor_type;location;lat;lon;timestamp;P1;durP1;ratioP1;P2;durP2;ratioP2
18378;SDS011;27025;51.986;5.984;2023-08-01T00:02:01;11.37;;;8.30;;
18378;SDS011;27025;51.986;5.984;2023-08-01T00:04:30;13.47;;;8.20;;
18378;SDS011;27025;51.986;5.984;2023-08-01T00:07:00;12.67;;;8.47;;
18378;SDS011;27025;51.986;5.984;2023-08-01T00:09:26;11.77;;;8.23;;
18378;SDS011;27025;51.986;5.984;2023-08-01T00:11:52;10.97;;;8.20;;
18378;SDS011;27025;51.986;5.984;2023-08-01T00:14:22;11.53;;;8.57;;
18378;SDS011;27025;51.986;5.984;2023-08-01T00:16:49;11.53;;;8.43;;
18378;SDS011;27025;51.986;5.984;2023-08-01T00:19:15;12.27;;;9.03;;
18378;SDS011;27025;51.986;5.984;2023-08-01T00:21:44;11.47;;;8.50;;
18378;SDS011;27025;51.986;5.984;2023-08-01T00:24:13;11.73;;;9.47;;
18378;SDS011;27025;51.986;5.984;2023-08-01T00:26:41;14.33;;;8.97;;
18378;SDS011;27025;51.986;5.984;2023-08-01T00:29:08;11.57;;;7.33;;
18378;SDS011;27025;51.986;5.984;2023-08-01T00:31:45;9.87;;;7.10;;
18378;SDS011;27025;51.986;5.984;2023-08-01T00:34:18;9.83;;;5.73;;
18378;SDS011;27025;51.986;5.984;2023-08-01T00:36:44;8.27;;;5.40;;
18378;SDS011;27025;51.986;5.984;2023-08-01T00:39:16;7.43;;;5.60;;
18378;SDS011;27025;51.986;5.984;2023-08-01T00:41:42;7.50;;;5.33;;
18378;SDS011;27025;51.986;5.984;2023-08-01T00:44:08;8.40;;;4.57;;
18378;SDS011;27025;51.986;5.984;2023-08-01T00:46:37;5.97;;;4.20;;
18378;SDS011;27025;51.986;5.984;2023-08-01T00:49:06;5.80;;;4.50;;
18378;SDS011;27025;51.986;5.984;2023-08-01T00:51:35;11.27;;;4.53;;
18378;SDS011;27025;51.986;5.984;2023-08-01T00:54:07;8.73;;;4.87;;
18378;SDS011;27025;51.986;5.984;2023-08-01T00:56:36;9.20;;;4.60;;
18378;SDS011;27025;51.986;5.984;2023-08-01T00:59:02;7.37;;;4.43;;
18378;SDS011;27025;51.986;5.984;2023-08-01T01:01:34;9.90;;;5.17;;
18378;SDS011;27025;51.986;5.984;2023-08-01T01:04:02;9.07;;;4.90;;
18378;SDS011;27025;51.986;5.984;2023-08-01T01:09:00;14.53;;;5.67;;
18378;SDS011;27025;51.986;5.984;2023-08-01T01:11:26;10.10;;;5.03;;
18378;SDS011;27025;51.986;5.984;2023-08-01T01:13:54;8.93;;;5.50;;
18378;SDS011;27025;51.986;5.984;2023-08-01T01:16:20;9.87;;;5.60;;
18378;SDS011;27025;51.986;5.984;2023-08-01T01:18:46;8.60;;;5.83;;
18378;SDS011;27025;51.986;5.984;2023-08-01T01:21:15;8.63;;;5.63;;
18378;SDS011;27025;51.986;5.984;2023-08-01T01:23:43;11.60;;;6.37;;
18378;SDS011;27025;51.986;5.984;2023-08-01T01:26:10;9.90;;;6.40;;
18378;SDS011;27025;51.986;5.984;2023-08-01T01:28:41;11.50;;;6.43;;
18378;SDS011;27025;51.986;5.984;2023-08-01T01:31:08;9.93;;;6.53;;
18378;SDS011;27025;51.986;5.984;2023-08-01T01:33:37;9.83;;;5.97;;
18378;SDS011;27025;51.986;5.984;2023-08-01T01:36:03;12.20;;;6.23;;
18378;SDS011;27025;51.986;5.984;2023-08-01T01:38:30;10.33;;;6.53;;
18378;SDS011;27025;51.986;5.984;2023-08-01T01:40:58;10.03;;;6.30;;
18378;SDS011;27025;51.986;5.984;2023-08-01T01:43:24;9.57;;;6.40;;
18378;SDS011;27025;51.986;5.984;2023-08-01T01:45:53;9.97;;;6.50;;
18378;SDS011;27025;51.986;5.984;2023-08-01T01:48:22;10.67;;;7.33;;
18378;SDS011;27025;51.986;5.984;2023-08-01T01:50:48;15.20;;;7.67;;
18378;SDS011;27025;51.986;5.984;2023-08-01T01:53:14;12.67;;;7.77;;
18378;SDS011;27025;51.986;5.984;2023-08-01T01:55:43;10.87;;;8.03;;
18378;SDS011;27025;51.986;5.984;2023-08-01T01:58:09;11.70;;;8.60;;
18378;SDS011;27025;51.986;5.984;2023-08-01T02:00:37;13.40;;;9.70;;
18378;SDS011;27025;51.986;5.984;2023-08-01T02:03:06;11.73;;;9.63;;
18378;SDS011;27025;51.986;5.984;2023-08-01T02:05:40;15.87;;;9.53;;
18378;SDS011;27025;51.986;5.984;2023-08-01T02:08:09;13.83;;;9.60;;
18378;SDS011;27025;51.986;5.984;2023-08-01T02:10:35;14.70;;;9.63;;
18378;SDS011;27025;51.986;5.984;2023-08-01T02:13:10;19.50;;;10.67;;
18378;SDS011;27025;51.986;5.984;2023-08-01T02:15:39;12.63;;;9.53;;
18378;SDS011;27025;51.986;5.984;2023-08-01T02:18:05;17.57;;;9.90;;
18378;SDS011;27025;51.986;5.984;2023-08-01T02:20:31;16.23;;;9.80;;
18378;SDS011;27025;51.986;5.984;2023-08-01T02:22:59;15.60;;;10.47;;
18378;SDS011;27025;51.986;5.984;2023-08-01T02:25:25;17.73;;;9.73;;
18378;SDS011;27025;51.986;5.984;2023-08-01T02:27:52;18.13;;;10.03;;
18378;SDS011;27025;51.986;5.984;2023-08-01T02:30:18;18.83;;;9.73;;
18378;SDS011;27025;51.986;5.984;2023-08-01T02:32:56;21.63;;;10.47;;
18378;SDS011;27025;51.986;5.984;2023-08-01T02:35:22;19.43;;;9.80;;
18378;SDS011;27025;51.986;5.984;2023-08-01T02:37:48;19.43;;;9.67;;
18378;SDS011;27025;51.986;5.984;2023-08-01T02:40:14;18.27;;;9.27;;
18378;SDS011;27025;51.986;5.984;2023-08-01T02:43:01;16.63;;;9.63;;
18378;SDS011;27025;51.986;5.984;2023-08-01T02:45:35;21.33;;;9.30;;
18378;SDS011;27025;51.986;5.984;2023-08-01T02:48:04;16.27;;;9.17;;
18378;SDS011;27025;51.986;5.984;2023-08-01T02:50:30;17.70;;;9.80;;
18378;SDS011;27025;51.986;5.984;2023-08-01T02:52:56;16.20;;;9.53;;
18378;SDS011;27025;51.986;5.984;2023-08-01T02:55:27;21.90;;;10.13;;
18378;SDS011;27025;51.986;5.984;2023-08-01T02:57:54;29.30;;;10.80;;
18378;SDS011;27025;51.986;5.984;2023-08-01T03:00:20;19.43;;;10.40;;
18378;SDS011;27025;51.986;5.984;2023-08-01T03:02:48;22.33;;;10.90;;
18378;SDS011;27025;51.986;5.984;2023-08-01T03:05:17;21.53;;;11.20;;
18378;SDS011;27025;51.986;5.984;2023-08-01T03:07:49;18.50;;;11.27;;
18378;SDS011;27025;51.986;5.984;2023-08-01T03:10:15;21.37;;;11.47;;
18378;SDS011;27025;51.986;5.984;2023-08-01T03:12:41;22.47;;;11.83;;
18378;SDS011;27025;51.986;5.984;2023-08-01T03:15:09;25.67;;;13.20;;
18378;SDS011;27025;51.986;5.984;2023-08-01T03:17:36;24.23;;;12.70;;
18378;SDS011;27025;51.986;5.984;2023-08-01T03:20:02;29.60;;;12.43;;
18378;SDS011;27025;51.986;5.984;2023-08-01T03:22:35;23.70;;;12.57;;
18378;SDS011;27025;51.986;5.984;2023-08-01T03:25:09;22.27;;;12.37;;
18378;SDS011;27025;51.986;5.984;2023-08-01T03:27:38;24.50;;;12.20;;
18378;SDS011;27025;51.986;5.984;2023-08-01T03:30:06;28.17;;;12.83;;
18378;SDS011;27025;51.986;5.984;2023-08-01T03:32:34;21.27;;;11.60;;
18378;SDS011;27025;51.986;5.984;2023-08-01T03:35:06;21.00;;;11.07;;
18378;SDS011;27025;51.986;5.984;2023-08-01T03:37:34;22.93;;;11.00;;
18378;SDS011;27025;51.986;5.984;2023-08-01T03:40:08;20.40;;;11.27;;
18378;SDS011;27025;51.986;5.984;2023-08-01T03:42:34;24.70;;;11.30;;
18378;SDS011;27025;51.986;5.984;2023-08-01T03:45:03;26.77;;;11.70;;
18378;SDS011;27025;51.986;5.984;2023-08-01T03:47:30;21.00;;;11.33;;
18378;SDS011;27025;51.986;5.984;2023-08-01T03:49:56;27.67;;;11.40;;
18378;SDS011;27025;51.986;5.984;2023-08-01T03:52:25;26.33;;;11.90;;
18378;SDS011;27025;51.986;5.984;2023-08-01T03:54:55;27.10;;;11.10;;
18378;SDS011;27025;51.986;5.984;2023-08-01T03:57:23;25.70;;;11.80;;
18378;SDS011;27025;51.986;5.984;2023-08-01T03:59:49;30.23;;;11.67;;
18378;SDS011;27025;51.986;5.984;2023-08-01T04:02:16;24.10;;;11.33;;
18378;SDS011;27025;51.986;5.984;2023-08-01T04:04:44;22.90;;;11.43;;
18378;SDS011;27025;51.986;5.984;2023-08-01T04:07:10;24.80;;;10.43;;
18378;SDS011;27025;51.986;5.984;2023-08-01T04:09:36;21.27;;;10.33;;
18378;SDS011;27025;51.986;5.984;2023-08-01T04:12:07;19.73;;;10.20;;
18378;SDS011;27025;51.986;5.984;2023-08-01T04:14:34;23.13;;;9.63;;
18378;SDS011;27025;51.986;5.984;2023-08-01T04:17:00;21.37;;;9.73;;
18378;SDS011;27025;51.986;5.984;2023-08-01T04:19:29;23.53;;;10.07;;
18378;SDS011;27025;51.986;5.984;2023-08-01T04:21:55;25.30;;;9.63;;
18378;SDS011;27025;51.986;5.984;2023-08-01T04:24:21;18.57;;;8.90;;
18378;SDS011;27025;51.986;5.984;2023-08-01T04:26:56;17.07;;;9.33;;
18378;SDS011;27025;51.986;5.984;2023-08-01T04:29:22;27.73;;;9.43;;
18378;SDS011;27025;51.986;5.984;2023-08-01T04:31:51;18.40;;;8.80;;
18378;SDS011;27025;51.986;5.984;2023-08-01T04:34:17;22.27;;;9.37;;
18378;SDS011;27025;51.986;5.984;2023-08-01T04:36:48;21.93;;;9.40;;
18378;SDS011;27025;51.986;5.984;2023-08-01T04:39:14;19.90;;;9.37;;
18378;SDS011;27025;51.986;5.984;2023-08-01T04:41:41;20.10;;;9.63;;
18378;SDS011;27025;51.986;5.984;2023-08-01T04:44:09;21.70;;;9.10;;
18378;SDS011;27025;51.986;5.984;2023-08-01T04:46:35;25.63;;;10.10;;
18378;SDS011;27025;51.986;5.984;2023-08-01T04:49:01;17.90;;;9.53;;
18378;SDS011;27025;51.986;5.984;2023-08-01T04:51:28;20.03;;;8.73;;
18378;SDS011;27025;51.986;5.984;2023-08-01T04:53:57;20.83;;;9.00;;
18378;SDS011;27025;51.986;5.984;2023-08-01T04:56:23;19.07;;;8.90;;
18378;SDS011;27025;51.986;5.984;2023-08-01T04:58:49;24.00;;;9.00;;
18378;SDS011;27025;51.986;5.984;2023-08-01T05:01:17;16.40;;;8.50;;
18378;SDS011;27025;51.986;5.984;2023-08-01T05:03:46;19.17;;;8.33;;
18378;SDS011;27025;51.986;5.984;2023-08-01T05:06:12;21.30;;;8.53;;
18378;SDS011;27025;51.986;5.984;2023-08-01T05:08:40;19.73;;;8.53;;
18378;SDS011;27025;51.986;5.984;2023-08-01T05:11:06;16.70;;;8.60;;
18378;SDS011;27025;51.986;5.984;2023-08-01T05:13:33;17.57;;;8.33;;
18378;SDS011;27025;51.986;5.984;2023-08-01T05:16:01;15.73;;;8.80;;
18378;SDS011;27025;51.986;5.984;2023-08-01T05:18:28;17.03;;;8.60;;
18378;SDS011;27025;51.986;5.984;2023-08-01T05:20:54;17.67;;;8.83;;
18378;SDS011;27025;51.986;5.984;2023-08-01T05:23:22;20.67;;;8.97;;
18378;SDS011;27025;51.986;5.984;2023-08-01T05:25:49;18.90;;;8.93;;
18378;SDS011;27025;51.986;5.984;2023-08-01T05:28:18;20.60;;;9.23;;
18378;SDS011;27025;51.986;5.984;2023-08-01T05:30:46;17.73;;;8.50;;
18378;SDS011;27025;51.986;5.984;2023-08-01T05:33:15;16.63;;;8.80;;
18378;SDS011;27025;51.986;5.984;2023-08-01T05:35:44;17.63;;;9.10;;
18378;SDS011;27025;51.986;5.984;2023-08-01T05:38:10;16.87;;;9.07;;
18378;SDS011;27025;51.986;5.984;2023-08-01T05:40:36;23.07;;;9.67;;
18378;SDS011;27025;51.986;5.984;2023-08-01T05:43:02;16.77;;;9.40;;
18378;SDS011;27025;51.986;5.984;2023-08-01T05:45:34;18.97;;;9.57;;
18378;SDS011;27025;51.986;5.984;2023-08-01T05:48:00;17.63;;;8.80;;
18378;SDS011;27025;51.986;5.984;2023-08-01T05:50:44;17.20;;;9.80;;
18378;SDS011;27025;51.986;5.984;2023-08-01T05:53:11;20.37;;;10.00;;
18378;SDS011;27025;51.986;5.984;2023-08-01T05:55:46;17.90;;;9.93;;
18378;SDS011;27025;51.986;5.984;2023-08-01T05:58:15;20.23;;;9.97;;
18378;SDS011;27025;51.986;5.984;2023-08-01T06:00:51;16.40;;;9.80;;
18378;SDS011;27025;51.986;5.984;2023-08-01T06:03:17;21.73;;;10.70;;
18378;SDS011;27025;51.986;5.984;2023-08-01T06:05:43;14.60;;;8.90;;
18378;SDS011;27025;51.986;5.984;2023-08-01T06:08:16;16.80;;;9.60;;
18378;SDS011;27025;51.986;5.984;2023-08-01T06:10:51;16.13;;;9.03;;
18378;SDS011;27025;51.986;5.984;2023-08-01T06:13:17;25.13;;;9.53;;
18378;SDS011;27025;51.986;5.984;2023-08-01T06:15:43;18.10;;;9.50;;
18378;SDS011;27025;51.986;5.984;2023-08-01T06:18:12;20.70;;;8.63;;
18378;SDS011;27025;51.986;5.984;2023-08-01T06:20:40;19.83;;;8.27;;
18378;SDS011;27025;51.986;5.984;2023-08-01T06:23:09;21.00;;;8.67;;
18378;SDS011;27025;51.986;5.984;2023-08-01T06:25:35;18.57;;;9.43;;
18378;SDS011;27025;51.986;5.984;2023-08-01T06:28:01;17.53;;;8.03;;
18378;SDS011;27025;51.986;5.984;2023-08-01T06:30:35;15.17;;;8.57;;
18378;SDS011;27025;51.986;5.984;2023-08-01T06:33:09;18.47;;;8.57;;
18378;SDS011;27025;51.986;5.984;2023-08-01T06:35:37;16.07;;;8.20;;
18378;SDS011;27025;51.986;5.984;2023-08-01T06:38:06;18.80;;;8.03;;
18378;SDS011;27025;51.986;5.984;2023-08-01T06:40:35;14.53;;;7.37;;
18378;SDS011;27025;51.986;5.984;2023-08-01T06:43:04;16.97;;;7.87;;
18378;SDS011;27025;51.986;5.984;2023-08-01T06:45:32;16.77;;;8.03;;
18378;SDS011;27025;51.986;5.984;2023-08-01T06:48:08;16.83;;;7.80;;
18378;SDS011;27025;51.986;5.984;2023-08-01T06:50:37;16.73;;;7.47;;
18378;SDS011;27025;51.986;5.984;2023-08-01T06:53:21;13.50;;;6.63;;
18378;SDS011;27025;51.986;5.984;2023-08-01T06:55:51;13.10;;;6.97;;
18378;SDS011;27025;51.986;5.984;2023-08-01T06:58:17;15.77;;;6.60;;
18378;SDS011;27025;51.986;5.984;2023-08-01T07:00:43;20.90;;;7.30;;
18378;SDS011;27025;51.986;5.984;2023-08-01T07:03:15;16.53;;;7.23;;
18378;SDS011;27025;51.986;5.984;2023-08-01T07:05:41;16.60;;;6.87;;
18378;SDS011;27025;51.986;5.984;2023-08-01T07:08:10;15.20;;;6.50;;
18378;SDS011;27025;51.986;5.984;2023-08-01T07:10:39;13.50;;;6.80;;
18378;SDS011;27025;51.986;5.984;2023-08-01T07:13:12;10.70;;;6.03;;
18378;SDS011;27025;51.986;5.984;2023-08-01T07:15:44;16.17;;;6.23;;
18378;SDS011;27025;51.986;5.984;2023-08-01T07:18:10;15.63;;;6.27;;
18378;SDS011;27025;51.986;5.984;2023-08-01T07:20:44;11.97;;;6.20;;
18378;SDS011;27025;51.986;5.984;2023-08-01T07:23:10;13.30;;;5.53;;
18378;SDS011;27025;51.986;5.984;2023-08-01T07:25:36;12.97;;;6.20;;
18378;SDS011;27025;51.986;5.984;2023-08-01T07:28:05;13.07;;;5.73;;
18378;SDS011;27025;51.986;5.984;2023-08-01T07:30:44;11.87;;;5.50;;
18378;SDS011;27025;51.986;5.984;2023-08-01T07:33:18;11.57;;;5.77;;
18378;SDS011;27025;51.986;5.984;2023-08-01T07:35:44;13.80;;;5.43;;
18378;SDS011;27025;51.986;5.984;2023-08-01T07:38:18;11.43;;;4.97;;
18378;SDS011;27025;51.986;5.984;2023-08-01T07:43:59;12.27;;;4.67;;
18378;SDS011;27025;51.986;5.984;2023-08-01T07:50:22;9.53;;;4.80;;
18378;SDS011;27025;51.986;5.984;2023-08-01T07:52:48;8.37;;;4.53;;
18378;SDS011;27025;51.986;5.984;2023-08-01T07:55:14;11.20;;;4.30;;
18378;SDS011;27025;51.986;5.984;2023-08-01T07:57:43;9.93;;;4.03;;
18378;SDS011;27025;51.986;5.984;2023-08-01T08:03:31;10.67;;;4.30;;
18378;SDS011;27025;51.986;5.984;2023-08-01T08:15:40;5.70;;;3.57;;
18378;SDS011;27025;51.986;5.984;2023-08-01T08:18:16;7.13;;;3.83;;
18378;SDS011;27025;51.986;5.984;2023-08-01T08:20:50;9.83;;;3.93;;
18378;SDS011;27025;51.986;5.984;2023-08-01T08:26:03;8.60;;;4.00;;
18378;SDS011;27025;51.986;5.984;2023-08-01T08:28:37;19.07;;;5.60;;
18378;SDS011;27025;51.986;5.984;2023-08-01T08:31:04;10.37;;;4.00;;
18378;SDS011;27025;51.986;5.984;2023-08-01T08:33:31;10.13;;;3.90;;
18378;SDS011;27025;51.986;5.984;2023-08-01T08:36:00;9.57;;;4.23;;
18378;SDS011;27025;51.986;5.984;2023-08-01T08:38:28;9.37;;;4.20;;
18378;SDS011;27025;51.986;5.984;2023-08-01T08:40:58;9.83;;;4.13;;
18378;SDS011;27025;51.986;5.984;2023-08-01T08:43:27;11.63;;;4.33;;
18378;SDS011;27025;51.986;5.984;2023-08-01T08:46:00;7.87;;;4.00;;
18378;SDS011;27025;51.986;5.984;2023-08-01T08:48:26;7.70;;;3.97;;
18378;SDS011;27025;51.986;5.984;2023-08-01T08:50:59;11.23;;;3.83;;
18378;SDS011;27025;51.986;5.984;2023-08-01T08:53:26;7.40;;;3.53;;
18378;SDS011;27025;51.986;5.984;2023-08-01T08:55:55;9.60;;;4.23;;
18378;SDS011;27025;51.986;5.984;2023-08-01T08:58:21;8.77;;;3.97;;
18378;SDS011;27025;51.986;5.984;2023-08-01T09:00:48;12.77;;;4.20;;
18378;SDS011;27025;51.986;5.984;2023-08-01T09:03:17;7.67;;;3.80;;
18378;SDS011;27025;51.986;5.984;2023-08-01T09:05:45;8.23;;;3.70;;
18378;SDS011;27025;51.986;5.984;2023-08-01T09:08:36;5.77;;;2.60;;
18378;SDS011;27025;51.986;5.984;2023-08-01T09:11:07;7.83;;;2.90;;
18378;SDS011;27025;51.986;5.984;2023-08-01T09:13:36;7.77;;;3.10;;
18378;SDS011;27025;51.986;5.984;2023-08-01T09:19:05;6.27;;;3.20;;
18378;SDS011;27025;51.986;5.984;2023-08-01T09:21:35;7.07;;;2.87;;
18378;SDS011;27025;51.986;5.984;2023-08-01T09:24:13;6.17;;;2.60;;
18378;SDS011;27025;51.986;5.984;2023-08-01T09:26:40;6.80;;;3.10;;
18378;SDS011;27025;51.986;5.984;2023-08-01T09:29:15;5.83;;;2.63;;
18378;SDS011;27025;51.986;5.984;2023-08-01T09:31:44;6.10;;;2.67;;
18378;SDS011;27025;51.986;5.984;2023-08-01T09:34:20;6.37;;;2.73;;
18378;SDS011;27025;51.986;5.984;2023-08-01T09:36:49;10.03;;;2.70;;
18378;SDS011;27025;51.986;5.984;2023-08-01T09:39:19;5.00;;;2.70;;
18378;SDS011;27025;51.986;5.984;2023-08-01T09:42:01;5.40;;;2.73;;
18378;SDS011;27025;51.986;5.984;2023-08-01T09:44:30;7.27;;;2.40;;
18378;SDS011;27025;51.986;5.984;2023-08-01T09:46:59;6.07;;;2.80;;
18378;SDS011;27025;51.986;5.984;2023-08-01T09:49:28;4.37;;;2.57;;
18378;SDS011;27025;51.986;5.984;2023-08-01T09:51:54;6.30;;;2.40;;
18378;SDS011;27025;51.986;5.984;2023-08-01T09:54:29;8.07;;;2.33;;
18378;SDS011;27025;51.986;5.984;2023-08-01T09:56:55;4.53;;;2.10;;
18378;SDS011;27025;51.986;5.984;2023-08-01T09:59:24;5.57;;;2.20;;
18378;SDS011;27025;51.986;5.984;2023-08-01T10:01:51;4.63;;;2.63;;
18378;SDS011;27025;51.986;5.984;2023-08-01T10:04:29;6.20;;;2.33;;
18378;SDS011;27025;51.986;5.984;2023-08-01T10:06:59;4.30;;;2.20;;
18378;SDS011;27025;51.986;5.984;2023-08-01T10:12:02;7.73;;;2.77;;
18378;SDS011;27025;51.986;5.984;2023-08-01T10:14:28;5.67;;;2.47;;
18378;SDS011;27025;51.986;5.984;2023-08-01T10:16:58;5.67;;;2.80;;
18378;SDS011;27025;51.986;5.984;2023-08-01T10:19:24;5.93;;;2.40;;
18378;SDS011;27025;51.986;5.984;2023-08-01T10:21:53;7.27;;;2.60;;
18378;SDS011;27025;51.986;5.984;2023-08-01T10:24:20;6.93;;;2.57;;
18378;SDS011;27025;51.986;5.984;2023-08-01T10:26:46;5.00;;;2.30;;
18378;SDS011;27025;51.986;5.984;2023-08-01T10:29:13;7.43;;;2.47;;
18378;SDS011;27025;51.986;5.984;2023-08-01T10:31:51;6.05;;;2.30;;
18378;SDS011;27025;51.986;5.984;2023-08-01T10:34:20;6.72;;;2.50;;
18378;SDS011;27025;51.986;5.984;2023-08-01T10:36:57;4.93;;;2.17;;
18378;SDS011;27025;51.986;5.984;2023-08-01T10:39:44;6.20;;;2.30;;
18378;SDS011;27025;51.986;5.984;2023-08-01T10:42:16;4.97;;;2.10;;
18378;SDS011;27025;51.986;5.984;2023-08-01T10:44:52;4.43;;;1.95;;
18378;SDS011;27025;51.986;5.984;2023-08-01T10:47:25;5.35;;;2.10;;
18378;SDS011;27025;51.986;5.984;2023-08-01T10:49:55;6.32;;;2.10;;
18378;SDS011;27025;51.986;5.984;2023-08-01T10:52:27;5.07;;;2.15;;
18378;SDS011;27025;51.986;5.984;2023-08-01T10:55:03;6.82;;;1.98;;
18378;SDS011;27025;51.986;5.984;2023-08-01T10:57:34;7.90;;;1.92;;
18378;SDS011;27025;51.986;5.984;2023-08-01T11:00:00;3.80;;;2.15;;
18378;SDS011;27025;51.986;5.984;2023-08-01T11:02:27;4.20;;;2.17;;
18378;SDS011;27025;51.986;5.984;2023-08-01T11:05:00;7.18;;;2.33;;
18378;SDS011;27025;51.986;5.984;2023-08-01T11:07:34;7.88;;;2.15;;
18378;SDS011;27025;51.986;5.984;2023-08-01T11:13:10;5.50;;;2.60;;
18378;SDS011;27025;51.986;5.984;2023-08-01T11:21:44;6.00;;;3.00;;
18378;SDS011;27025;51.986;5.984;2023-08-01T11:30:59;5.07;;;2.05;;
18378;SDS011;27025;51.986;5.984;2023-08-01T11:33:27;6.43;;;2.15;;
18378;SDS011;27025;51.986;5.984;2023-08-01T11:35:56;5.18;;;2.35;;
18378;SDS011;27025;51.986;5.984;2023-08-01T11:38:25;5.35;;;2.00;;
18378;SDS011;27025;51.986;5.984;2023-08-01T11:40:51;5.10;;;2.25;;
18378;SDS011;27025;51.986;5.984;2023-08-01T11:43:17;6.25;;;2.47;;
18378;SDS011;27025;51.986;5.984;2023-08-01T11:45:50;4.93;;;2.25;;
18378;SDS011;27025;51.986;5.984;2023-08-01T11:48:16;6.10;;;2.78;;
18378;SDS011;27025;51.986;5.984;2023-08-01T11:50:43;5.22;;;2.30;;
18378;SDS011;27025;51.986;5.984;2023-08-01T11:53:19;6.47;;;2.35;;
18378;SDS011;27025;51.986;5.984;2023-08-01T11:55:46;7.32;;;2.67;;
18378;SDS011;27025;51.986;5.984;2023-08-01T11:58:12;5.28;;;2.15;;
18378;SDS011;27025;51.986;5.984;2023-08-01T12:00:39;5.78;;;2.35;;
18378;SDS011;27025;51.986;5.984;2023-08-01T12:03:07;5.72;;;2.15;;
18378;SDS011;27025;51.986;5.984;2023-08-01T12:05:38;5.57;;;2.28;;
18378;SDS011;27025;51.986;5.984;2023-08-01T12:08:12;5.75;;;2.20;;
18378;SDS011;27025;51.986;5.984;2023-08-01T12:10:47;4.18;;;1.83;;
18378;SDS011;27025;51.986;5.984;2023-08-01T12:13:23;4.03;;;1.90;;
18378;SDS011;27025;51.986;5.984;2023-08-01T12:15:51;4.68;;;2.17;;
18378;SDS011;27025;51.986;5.984;2023-08-01T12:18:24;4.60;;;2.30;;
18378;SDS011;27025;51.986;5.984;2023-08-01T12:20:50;5.40;;;2.00;;
18378;SDS011;27025;51.986;5.984;2023-08-01T12:23:16;6.88;;;2.25;;
18378;SDS011;27025;51.986;5.984;2023-08-01T12:25:42;7.30;;;2.63;;
18378;SDS011;27025;51.986;5.984;2023-08-01T12:28:08;6.93;;;2.30;;
18378;SDS011;27025;51.986;5.984;2023-08-01T12:30:34;6.18;;;2.50;;
18378;SDS011;27025;51.986;5.984;2023-08-01T12:33:00;6.35;;;2.50;;
18378;SDS011;27025;51.986;5.984;2023-08-01T12:35:27;6.72;;;1.95;;
18378;SDS011;27025;51.986;5.984;2023-08-01T12:37:53;7.40;;;1.83;;
18378;SDS011;27025;51.986;5.984;2023-08-01T12:40:19;5.28;;;1.98;;
18378;SDS011;27025;51.986;5.984;2023-08-01T12:42:46;6.53;;;2.20;;
18378;SDS011;27025;51.986;5.984;2023-08-01T12:45:12;5.03;;;2.17;;
18378;SDS011;27025;51.986;5.984;2023-08-01T12:47:38;6.07;;;2.50;;
18378;SDS011;27025;51.986;5.984;2023-08-01T12:50:05;5.60;;;2.40;;
18378;SDS011;27025;51.986;5.984;2023-08-01T12:52:31;8.60;;;2.45;;
18378;SDS011;27025;51.986;5.984;2023-08-01T12:54:57;6.60;;;2.67;;
18378;SDS011;27025;51.986;5.984;2023-08-01T12:57:23;6.40;;;2.67;;
18378;SDS011;27025;51.986;5.984;2023-08-01T12:59:49;8.57;;;2.53;;
18378;SDS011;27025;51.986;5.984;2023-08-01T13:02:15;9.30;;;2.78;;
18378;SDS011;27025;51.986;5.984;2023-08-01T13:04:41;6.57;;;2.30;;
18378;SDS011;27025;51.986;5.984;2023-08-01T13:07:07;6.35;;;2.80;;
18378;SDS011;27025;51.986;5.984;2023-08-01T13:09:33;8.75;;;2.80;;
18378;SDS011;27025;51.986;5.984;2023-08-01T13:11:59;6.47;;;2.83;;
18378;SDS011;27025;51.986;5.984;2023-08-01T13:14:25;8.73;;;3.10;;
18378;SDS011;27025;51.986;5.984;2023-08-01T13:16:52;5.50;;;2.38;;
18378;SDS011;27025;51.986;5.984;2023-08-01T13:19:18;7.18;;;2.80;;
18378;SDS011;27025;51.986;5.984;2023-08-01T13:21:45;6.55;;;2.65;;
18378;SDS011;27025;51.986;5.984;2023-08-01T13:24:11;5.78;;;2.47;;
18378;SDS011;27025;51.986;5.984;2023-08-01T13:26:37;8.27;;;2.75;;
18378;SDS011;27025;51.986;5.984;2023-08-01T13:29:03;6.68;;;2.65;;
18378;SDS011;27025;51.986;5.984;2023-08-01T13:31:29;9.05;;;2.70;;
18378;SDS011;27025;51.986;5.984;2023-08-01T13:33:55;7.90;;;2.60;;
18378;SDS011;27025;51.986;5.984;2023-08-01T13:36:21;5.90;;;2.55;;
18378;SDS011;27025;51.986;5.984;2023-08-01T13:38:47;5.47;;;2.40;;
18378;SDS011;27025;51.986;5.984;2023-08-01T13:41:14;4.53;;;2.30;;
18378;SDS011;27025;51.986;5.984;2023-08-01T13:43:40;4.78;;;2.10;;
18378;SDS011;27025;51.986;5.984;2023-08-01T13:46:16;4.72;;;2.40;;
18378;SDS011;27025;51.986;5.984;2023-08-01T13:48:44;7.07;;;2.65;;
18378;SDS011;27025;51.986;5.984;2023-08-01T13:51:10;7.70;;;2.17;;
18378;SDS011;27025;51.986;5.984;2023-08-01T13:53:36;4.20;;;2.03;;
18378;SDS011;27025;51.986;5.984;2023-08-01T13:56:12;4.55;;;2.40;;
18378;SDS011;27025;51.986;5.984;2023-08-01T13:58:41;6.85;;;2.10;;
18378;SDS011;27025;51.986;5.984;2023-08-01T14:01:08;7.22;;;2.50;;
18378;SDS011;27025;51.986;5.984;2023-08-01T14:03:37;6.25;;;2.38;;
18378;SDS011;27025;51.986;5.984;2023-08-01T14:06:10;4.68;;;2.08;;
18378;SDS011;27025;51.986;5.984;2023-08-01T14:08:36;5.40;;;2.35;;
18378;SDS011;27025;51.986;5.984;2023-08-01T14:11:03;3.63;;;1.88;;
18378;SDS011;27025;51.986;5.984;2023-08-01T14:13:29;9.65;;;2.30;;
18378;SDS011;27025;51.986;5.984;2023-08-01T14:15:55;4.35;;;2.20;;
18378;SDS011;27025;51.986;5.984;2023-08-01T14:18:21;6.38;;;2.20;;
18378;SDS011;27025;51.986;5.984;2023-08-01T14:20:47;4.72;;;2.20;;
18378;SDS011;27025;51.986;5.984;2023-08-01T14:23:13;4.97;;;2.15;;
18378;SDS011;27025;51.986;5.984;2023-08-01T14:25:39;8.20;;;2.40;;
18378;SDS011;27025;51.986;5.984;2023-08-01T14:28:05;6.07;;;2.05;;
18378;SDS011;27025;51.986;5.984;2023-08-01T14:30:31;5.82;;;2.00;;
18378;SDS011;27025;51.986;5.984;2023-08-01T14:33:01;3.25;;;1.80;;
18378;SDS011;27025;51.986;5.984;2023-08-01T14:35:27;5.55;;;1.95;;
18378;SDS011;27025;51.986;5.984;2023-08-01T14:37:53;6.20;;;2.20;;
18378;SDS011;27025;51.986;5.984;2023-08-01T14:40:20;8.30;;;2.20;;
18378;SDS011;27025;51.986;5.984;2023-08-01T14:42:47;6.25;;;2.03;;
18378;SDS011;27025;51.986;5.984;2023-08-01T14:45:13;6.60;;;2.08;;
18378;SDS011;27025;51.986;5.984;2023-08-01T14:47:39;6.38;;;2.72;;
18378;SDS011;27025;51.986;5.984;2023-08-01T14:50:06;5.47;;;1.85;;
18378;SDS011;27025;51.986;5.984;2023-08-01T14:52:33;6.68;;;2.00;;
18378;SDS011;27025;51.986;5.984;2023-08-01T14:54:59;5.25;;;1.90;;
18378;SDS011;27025;51.986;5.984;2023-08-01T14:57:25;4.00;;;2.10;;
18378;SDS011;27025;51.986;5.984;2023-08-01T14:59:51;5.90;;;2.10;;
18378;SDS011;27025;51.986;5.984;2023-08-01T15:02:17;5.15;;;1.88;;
18378;SDS011;27025;51.986;5.984;2023-08-01T15:04:43;4.65;;;1.98;;
18378;SDS011;27025;51.986;5.984;2023-08-01T15:07:09;7.15;;;2.20;;
18378;SDS011;27025;51.986;5.984;2023-08-01T15:09:35;7.82;;;2.47;;
18378;SDS011;27025;51.986;5.984;2023-08-01T15:12:01;6.68;;;2.42;;
18378;SDS011;27025;51.986;5.984;2023-08-01T15:14:27;16.60;;;2.90;;
18378;SDS011;27025;51.986;5.984;2023-08-01T15:16:53;10.50;;;2.67;;
18378;SDS011;27025;51.986;5.984;2023-08-01T15:19:20;7.45;;;2.78;;
18378;SDS011;27025;51.986;5.984;2023-08-01T15:21:46;5.85;;;2.35;;
18378;SDS011;27025;51.986;5.984;2023-08-01T15:24:12;6.88;;;2.30;;
18378;SDS011;27025;51.986;5.984;2023-08-01T15:26:38;6.15;;;2.55;;
18378;SDS011;27025;51.986;5.984;2023-08-01T15:29:04;9.85;;;2.60;;
18378;SDS011;27025;51.986;5.984;2023-08-01T15:31:30;5.90;;;2.30;;
18378;SDS011;27025;51.986;5.984;2023-08-01T15:33:56;8.07;;;2.70;;
18378;SDS011;27025;51.986;5.984;2023-08-01T15:36:27;4.78;;;2.25;;